Time;durP1;ratioP1;P1;durP2;ratioP2;P2;SDS_P1;SDS_P2;PMS_P1;PMS_P2;Temp;Humidity;BMP_temperature;BMP_pressure;BME280_temperature;BME280_humidity;BME280_pressure;Samples;Min_cycle;Max_cycle;Signal;HPM_P1;HPM_P2
2021/01/06 00:01:23;;;;;;;30.30;20.77;;;4.30;99.90;;;;;;5025985;28;37335;-78
2021/01/06 00:03:49;;;;;;;33.73;20.90;;;4.30;99.90;;;;;;5031119;28;37105;-78
2021/01/06 00:06:17;;;;;;;35.77;20.73;;;4.30;99.90;;;;;;5047719;28;36385;-78
2021/01/06 00:08:44;;;;;;;30.97;19.80;;;4.30;99.90;;;;;;5028157;28;40313;-78
2021/01/06 00:11:12;;;;;;;30.80;20.00;;;4.30;99.90;;;;;;5046845;28;37417;-77
2021/01/06 00:13:38;;;;;;;30.93;19.43;;;4.30;99.90;;;;;;5034767;28;37983;-77
2021/01/06 00:16:05;;;;;;;29.27;19.40;;;4.30;99.90;;;;;;5027912;28;38276;-77
2021/01/06 00:18:31;;;;;;;28.10;19.23;;;4.20;99.90;;;;;;5035327;28;38505;-78
2021/01/06 00:20:57;;;;;;;28.40;18.30;;;4.20;99.90;;;;;;5024779;28;38695;-77
2021/01/06 00:23:24;;;;;;;27.40;19.30;;;4.20;99.90;;;;;;5047102;28;37625;-78
2021/01/06 00:25:50;;;;;;;29.87;20.33;;;4.20;99.90;;;;;;5045544;28;38476;-77
2021/01/06 00:28:19;;;;;;;28.03;18.00;;;4.20;99.90;;;;;;5041749;28;39595;-77
2021/01/06 00:30:58;;;;;;;24.63;17.63;;;4.30;99.90;;;;;;5031729;28;37471;-77
2021/01/06 00:33:30;;;;;;;30.13;19.30;;;4.20;99.90;;;;;;5046241;28;39868;-78
2021/01/06 00:36:00;;;;;;;26.83;17.95;;;4.20;99.90;;;;;;5047766;28;38331;-78
2021/01/06 00:38:29;;;;;;;26.77;17.23;;;4.20;99.90;;;;;;5028779;28;39361;-78
2021/01/06 00:40:55;;;;;;;25.97;17.27;;;4.20;99.90;;;;;;5026143;28;39666;-78
2021/01/06 00:43:22;;;;;;;24.07;16.33;;;4.20;99.90;;;;;;5043684;28;37423;-77
2021/01/06 00:45:48;;;;;;;24.83;16.27;;;4.20;99.90;;;;;;5047034;28;37292;-77
2021/01/06 00:48:15;;;;;;;25.53;16.30;;;4.20;99.90;;;;;;5048959;28;39591;-78
2021/01/06 00:50:41;;;;;;;26.97;17.07;;;4.20;99.90;;;;;;5031587;28;38336;-77
2021/01/06 00:53:14;;;;;;;22.43;15.80;;;4.30;99.90;;;;;;5027988;28;38181;-78
2021/01/06 00:55:40;;;;;;;21.38;15.02;;;4.20;99.90;;;;;;5046653;28;38125;-78
2021/01/06 00:58:06;;;;;;;28.07;17.20;;;4.20;99.90;;;;;;5044731;28;40545;-78
2021/01/06 01:00:32;;;;;;;22.13;15.70;;;4.20;99.90;;;;;;5040898;28;38254;-78
2021/01/06 01:02:58;;;;;;;25.40;16.70;;;4.20;99.90;;;;;;5042413;28;39008;-78
2021/01/06 01:05:28;;;;;;;26.17;16.47;;;4.20;99.90;;;;;;5025437;28;38019;-78
2021/01/06 01:07:55;;;;;;;24.77;15.80;;;4.20;99.90;;;;;;5049644;28;38756;-79
2021/01/06 01:10:36;;;;;;;22.60;15.70;;;4.20;99.90;;;;;;5051677;28;38514;-78
2021/01/06 01:13:06;;;;;;;23.20;16.07;;;4.20;99.90;;;;;;5025721;28;38922;-77
2021/01/06 01:15:35;;;;;;;24.53;16.30;;;4.20;99.90;;;;;;5039963;28;38504;-77
2021/01/06 01:18:02;;;;;;;24.20;15.90;;;4.20;99.90;;;;;;5052821;28;39771;-78
2021/01/06 01:20:28;;;;;;;24.63;16.40;;;4.20;99.90;;;;;;5028314;28;47584;-77
2021/01/06 01:22:54;;;;;;;29.23;18.97;;;4.20;99.90;;;;;;5041309;28;38535;-78
2021/01/06 01:25:23;;;;;;;25.47;16.47;;;4.20;99.90;;;;;;5043600;28;37714;-77
2021/01/06 01:27:49;;;;;;;25.37;15.90;;;4.20;99.90;;;;;;5045457;28;40312;-78
2021/01/06 01:30:19;;;;;;;24.50;16.63;;;4.20;99.90;;;;;;5053965;28;39385;-78
2021/01/06 01:32:47;;;;;;;25.60;17.00;;;4.20;99.90;;;;;;5041868;28;38265;-77
2021/01/06 01:35:16;;;;;;;21.27;15.30;;;4.20;99.90;;;;;;5048626;28;37715;-78
2021/01/06 01:37:44;;;;;;;22.23;16.03;;;4.20;99.90;;;;;;5029501;28;39044;-78
2021/01/06 01:40:32;;;;;;;24.07;16.27;;;4.20;99.90;;;;;;5047391;28;39061;-77
2021/01/06 01:43:06;;;;;;;24.07;14.80;;;4.20;99.90;;;;;;5047860;28;38811;-78
2021/01/06 01:45:52;;;;;;;21.23;15.17;;;4.20;99.90;;;;;;5035407;28;48898;-77
2021/01/06 01:48:36;;;;;;;22.73;14.80;;;4.20;99.90;;;;;;4998579;28;39638;-77
2021/01/06 01:51:12;;;;;;;21.97;14.60;;;4.20;99.90;;;;;;5045814;28;38436;-77
2021/01/06 01:53:48;;;;;;;21.97;15.37;;;4.20;99.90;;;;;;5045276;28;37976;-77
2021/01/06 01:56:16;;;;;;;19.50;14.20;;;4.20;99.90;;;;;;5049349;28;37900;-78
2021/01/06 01:58:46;;;;;;;20.67;15.13;;;4.20;99.90;;;;;;5026732;28;37944;-77
2021/01/06 02:01:12;;;;;;;24.03;16.50;;;4.20;99.90;;;;;;5034701;28;39177;-77
2021/01/06 02:03:54;;;;;;;25.07;16.20;;;4.20;99.90;;;;;;5031974;28;37557;-77
2021/01/06 02:06:40;;;;;;;21.60;14.50;;;4.20;99.90;;;;;;5040465;28;37724;-78
2021/01/06 02:09:16;;;;;;;20.13;14.07;;;4.20;99.90;;;;;;5038623;28;40383;-77
2021/01/06 02:11:50;;;;;;;20.27;14.47;;;4.20;99.90;;;;;;5054044;28;38489;-77
2021/01/06 02:14:23;;;;;;;17.37;13.50;;;4.20;99.90;;;;;;5045894;28;38738;-78
2021/01/06 02:17:02;;;;;;;21.57;13.47;;;4.20;99.90;;;;;;5050960;28;38036;-78
2021/01/06 02:19:47;;;;;;;22.87;14.17;;;4.20;99.90;;;;;;5053091;28;47389;-77
2021/01/06 02:22:16;;;;;;;17.87;13.23;;;4.20;99.90;;;;;;5028168;28;39284;-78
2021/01/06 02:24:45;;;;;;;22.00;14.30;;;4.20;99.90;;;;;;5033394;28;39147;-78
2021/01/06 02:27:11;;;;;;;20.50;13.70;;;4.20;99.90;;;;;;5025639;28;39367;-78
2021/01/06 02:29:39;;;;;;;18.17;13.43;;;4.20;99.90;;;;;;5046349;28;39000;-78
2021/01/06 02:32:05;;;;;;;17.40;12.97;;;4.20;99.90;;;;;;5024977;28;39036;-78
2021/01/06 02:34:43;;;;;;;17.13;12.50;;;4.20;99.90;;;;;;5041477;28;37920;-77
2021/01/06 02:37:10;;;;;;;18.43;12.97;;;4.10;99.90;;;;;;5042876;28;38895;-78
2021/01/06 02:39:37;;;;;;;18.33;14.00;;;4.10;99.90;;;;;;5023012;28;39222;-78
2021/01/06 02:42:03;;;;;;;17.13;12.10;;;4.10;99.90;;;;;;5025848;28;38333;-78
2021/01/06 02:44:30;;;;;;;17.27;12.73;;;4.00;99.90;;;;;;5039964;28;38470;-78
2021/01/06 02:46:56;;;;;;;16.77;11.27;;;4.00;99.90;;;;;;5047548;28;37960;-79
2021/01/06 02:49:24;;;;;;;17.23;11.70;;;4.00;99.90;;;;;;5030331;28;37694;-78
2021/01/06 02:52:17;;;;;;;17.43;11.67;;;4.00;99.90;;;;;;5030554;28;38422;-78
2021/01/06 02:54:45;;;;;;;;;;;4.10;99.90;;;;;;5042511;28;47277;-78
2021/01/06 02:57:13;;;;;;;15.67;12.23;;;4.10;99.90;;;;;;5048303;28;38360;-78
2021/01/06 02:59:46;;;;;;;20.37;13.57;;;4.10;99.90;;;;;;5034385;28;38552;-78
2021/01/06 03:02:19;;;;;;;16.65;11.82;;;4.00;99.90;;;;;;5048477;28;39205;-77
2021/01/06 03:05:15;;;;;;;16.90;10.87;;;4.00;99.90;;;;;;5052448;28;38471;-77
2021/01/06 03:07:42;;;;;;;14.03;11.30;;;4.00;99.90;;;;;;5055380;28;48500;-77
2021/01/06 03:10:16;;;;;;;17.07;12.17;;;4.00;99.90;;;;;;5056984;28;39066;-78
2021/01/06 03:12:43;;;;;;;16.93;11.10;;;4.00;99.90;;;;;;5053073;28;39230;-78
2021/01/06 03:15:10;;;;;;;15.07;10.43;;;4.00;99.90;;;;;;5032034;28;39745;-77
2021/01/06 03:17:37;;;;;;;16.07;12.20;;;3.90;99.90;;;;;;5055870;28;36875;-77
2021/01/06 03:20:10;;;;;;;14.30;10.93;;;3.90;99.90;;;;;;5052812;28;39114;-78
2021/01/06 03:22:39;;;;;;;16.00;11.20;;;3.90;99.90;;;;;;5052110;28;47041;-77
2021/01/06 03:25:12;;;;;;;13.90;11.07;;;3.90;99.90;;;;;;5049469;28;38321;-77
2021/01/06 03:27:41;;;;;;;15.57;10.63;;;3.90;99.90;;;;;;5026176;28;37529;-78
2021/01/06 03:30:12;;;;;;;14.07;11.43;;;3.80;99.90;;;;;;5031156;28;37940;-77
2021/01/06 03:32:58;;;;;;;13.20;10.40;;;3.80;99.90;;;;;;5040601;28;39440;-77
2021/01/06 03:35:36;;;;;;;15.27;10.37;;;3.80;99.90;;;;;;5041692;28;38690;-78
2021/01/06 03:38:14;;;;;;;13.60;9.47;;;3.80;99.90;;;;;;5045580;28;38326;-77
2021/01/06 03:40:43;;;;;;;13.80;10.70;;;3.80;99.90;;;;;;5049862;28;39796;-78
2021/01/06 03:43:10;;;;;;;14.80;10.73;;;3.80;99.90;;;;;;5040375;28;39256;-78
2021/01/06 03:45:41;;;;;;;20.87;12.30;;;3.80;99.90;;;;;;5027270;28;37654;-78
2021/01/06 03:48:25;;;;;;;15.00;11.13;;;3.80;99.90;;;;;;5036705;28;39080;-78
2021/01/06 03:50:55;;;;;;;16.37;10.30;;;3.70;99.90;;;;;;5054339;28;38614;-78
2021/01/06 03:53:34;;;;;;;12.70;10.30;;;3.70;99.90;;;;;;5032701;28;38943;-78
2021/01/06 03:56:10;;;;;;;12.97;10.20;;;3.70;99.90;;;;;;5049084;28;37973;-78
2021/01/06 03:58:44;;;;;;;14.17;10.90;;;3.60;99.90;;;;;;5028879;28;47308;-77
2021/01/06 04:01:34;;;;;;;14.67;10.73;;;3.60;99.90;;;;;;5025183;28;40885;-78
2021/01/06 04:04:05;;;;;;;13.37;10.07;;;3.60;99.90;;;;;;5038950;28;39740;-78
2021/01/06 04:06:34;;;;;;;14.20;10.77;;;3.60;99.90;;;;;;5026845;28;47090;-78
2021/01/06 04:09:03;;;;;;;15.07;11.53;;;3.60;99.90;;;;;;5049414;28;38138;-78
2021/01/06 04:11:34;;;;;;;13.70;11.00;;;3.60;99.90;;;;;;5050642;28;48491;-78
2021/01/06 04:14:00;;;;;;;18.77;11.40;;;3.50;99.90;;;;;;5047238;28;38344;-78
2021/01/06 04:16:27;;;;;;;14.17;11.77;;;3.50;99.90;;;;;;5043168;28;41706;-78
2021/01/06 04:18:54;;;;;;;14.97;11.00;;;3.50;99.90;;;;;;5041177;28;37233;-78
2021/01/06 04:21:21;;;;;;;13.60;10.83;;;3.50;99.90;;;;;;5026941;28;39959;-78
2021/01/06 04:23:48;;;;;;;16.47;11.73;;;3.50;99.90;;;;;;5048286;28;38990;-77
2021/01/06 04:26:15;;;;;;;14.60;11.20;;;3.50;99.90;;;;;;5025444;28;39954;-77
2021/01/06 04:28:42;;;;;;;15.33;11.10;;;3.60;99.90;;;;;;5027241;28;38176;-78
2021/01/06 04:31:18;;;;;;;14.80;10.67;;;3.50;99.90;;;;;;5008420;28;39455;-78
2021/01/06 04:33:48;;;;;;;13.50;10.47;;;3.50;99.90;;;;;;5027198;28;38541;-77
2021/01/06 04:36:18;;;;;;;12.43;9.97;;;3.50;99.90;;;;;;5030576;28;39664;-78
2021/01/06 04:38:47;;;;;;;13.47;10.37;;;3.40;99.90;;;;;;5045895;28;38622;-78
2021/01/06 04:41:16;;;;;;;15.70;10.77;;;3.40;99.90;;;;;;5037981;28;40251;-75
2021/01/06 04:44:10;;;;;;;16.23;10.93;;;3.50;99.90;;;;;;5046784;28;39373;-75
2021/01/06 04:46:54;;;;;;;13.13;10.00;;;3.50;99.90;;;;;;5044752;28;48593;-77
2021/01/06 04:50:04;;;;;;;13.13;10.20;;;3.50;99.90;;;;;;5021837;28;38290;-76
2021/01/06 04:52:45;;;;;;;11.30;9.03;;;3.50;99.90;;;;;;5015823;28;48658;-77
2021/01/06 04:55:31;;;;;;;13.33;9.40;;;3.40;99.90;;;;;;5026417;28;39035;-77
2021/01/06 04:58:11;;;;;;;16.13;10.70;;;3.40;99.90;;;;;;5046652;28;38012;-77
2021/01/06 05:01:02;;;;;;;12.80;9.73;;;3.40;99.90;;;;;;5019995;28;48639;-77
2021/01/06 05:03:51;;;;;;;12.40;9.43;;;3.40;99.90;;;;;;5046983;28;48761;-77
2021/01/06 05:06:46;;;;;;;13.40;8.63;;;3.40;99.90;;;;;;5007058;28;40316;-77
2021/01/06 05:09:22;;;;;;;13.03;9.43;;;3.30;99.90;;;;;;5026753;28;38780;-76
2021/01/06 05:12:02;;;;;;;13.90;9.47;;;3.30;99.90;;;;;;5040166;28;37206;-77
2021/01/06 05:14:39;;;;;;;13.73;9.40;;;3.30;99.90;;;;;;5034877;28;47095;-77
2021/01/06 05:17:07;;;;;;;11.67;9.27;;;3.30;99.90;;;;;;5042969;28;38625;-76
2021/01/06 05:19:34;;;;;;;13.63;10.03;;;3.30;99.90;;;;;;5032405;28;38242;-77
2021/01/06 05:22:02;;;;;;;14.67;10.47;;;3.30;99.90;;;;;;5023287;28;38868;-77
2021/01/06 05:24:42;;;;;;;17.90;10.53;;;3.30;99.90;;;;;;5046847;28;46876;-77
2021/01/06 05:27:42;;;;;;;14.93;10.33;;;3.20;99.90;;;;;;5031061;28;37976;-77
2021/01/06 05:30:29;;;;;;;15.97;10.63;;;3.20;99.90;;;;;;5040902;28;38554;-77
2021/01/06 05:33:03;;;;;;;13.80;9.67;;;3.20;99.90;;;;;;5035369;28;36875;-77
2021/01/06 05:35:36;;;;;;;14.27;10.83;;;3.20;99.90;;;;;;5048005;28;48874;-77
2021/01/06 05:38:02;;;;;;;12.70;9.80;;;3.10;99.90;;;;;;5051819;28;39152;-77
2021/01/06 05:40:31;;;;;;;14.03;10.23;;;3.10;99.90;;;;;;5045566;28;38014;-77
2021/01/06 05:43:00;;;;;;;15.53;9.87;;;3.10;99.90;;;;;;5045572;28;37375;-77
2021/01/06 05:45:37;;;;;;;13.93;9.97;;;3.20;99.90;;;;;;5045231;28;38763;-77
2021/01/06 05:48:17;;;;;;;14.50;9.97;;;3.20;99.90;;;;;;5039161;28;39545;-76
2021/01/06 05:51:05;;;;;;;19.47;10.27;;;3.20;99.90;;;;;;5043408;28;39136;-77
2021/01/06 05:53:37;;;;;;;15.57;10.80;;;3.20;99.90;;;;;;5047268;28;48942;-77
2021/01/06 05:56:25;;;;;;;14.70;10.43;;;3.20;99.90;;;;;;5024281;28;40697;-76
2021/01/06 05:59:35;;;;;;;14.97;10.27;;;3.20;99.90;;;;;;5005883;28;37328;-77
2021/01/06 06:02:35;;;;;;;13.83;9.70;;;3.20;99.90;;;;;;5038778;28;49060;-76
2021/01/06 06:05:11;;;;;;;14.00;9.70;;;3.10;99.90;;;;;;5031779;28;38363;-77
2021/01/06 06:07:56;;;;;;;12.63;9.50;;;3.10;99.90;;;;;;5036316;28;47687;-77
2021/01/06 06:10:39;;;;;;;16.80;10.53;;;3.10;99.90;;;;;;4998278;28;38902;-77
2021/01/06 06:13:24;;;;;;;;;;;3.10;99.90;;;;;;5003220;28;37845;-77
2021/01/06 06:16:18;;;;;;;14.97;9.80;;;3.10;99.90;;;;;;5006329;28;37676;-77
2021/01/06 06:19:05;;;;;;;17.70;10.40;;;3.10;99.90;;;;;;5001708;28;47416;-77
2021/01/06 06:21:35;;;;;;;16.93;11.83;;;3.20;99.90;;;;;;5003978;28;48663;-77
2021/01/06 06:24:04;;;;;;;16.33;10.20;;;3.10;99.90;;;;;;5000703;28;39055;-77
2021/01/06 06:26:50;;;;;;;16.77;11.27;;;3.10;99.90;;;;;;5025536;28;47320;-77
2021/01/06 06:29:39;;;;;;;14.50;10.20;;;3.10;99.90;;;;;;5017465;28;39079;-76
2021/01/06 06:32:06;;;;;;;16.93;10.60;;;3.10;99.90;;;;;;5003678;28;38268;-77
2021/01/06 06:34:39;;;;;;;16.43;10.87;;;3.10;99.90;;;;;;5008751;28;38873;-77
2021/01/06 06:37:16;;;;;;;16.60;9.73;;;3.10;99.90;;;;;;5016567;28;38148;-77
2021/01/06 06:40:07;;;;;;;16.47;10.70;;;3.10;99.90;;;;;;5009681;28;38908;-76
2021/01/06 06:42:49;;;;;;;14.83;10.40;;;3.10;99.90;;;;;;5025244;28;46174;-77
2021/01/06 06:45:40;;;;;;;15.43;11.00;;;3.10;99.90;;;;;;5004757;28;38043;-77
2021/01/06 06:48:36;;;;;;;15.73;10.70;;;3.10;99.90;;;;;;5038339;28;38142;-77
2021/01/06 06:51:19;;;;;;;14.43;10.23;;;3.10;99.90;;;;;;5007884;28;38749;-76
2021/01/06 06:54:11;;;;;;;17.00;11.70;;;3.10;99.90;;;;;;5008438;28;38375;-77
2021/01/06 06:56:52;;;;;;;16.40;10.40;;;3.10;99.90;;;;;;5006003;28;47183;-77
2021/01/06 06:59:57;;;;;;;18.20;10.67;;;3.10;99.90;;;;;;5009018;28;36641;-76
2021/01/06 07:02:24;;;;;;;14.77;11.13;;;3.00;99.90;;;;;;5001056;28;39247;-77
2021/01/06 07:04:54;;;;;;;15.47;10.73;;;3.10;99.90;;;;;;5002050;28;39151;-76
2021/01/06 07:07:36;;;;;;;16.03;10.90;;;3.10;99.90;;;;;;5005981;28;38370;-77
2021/01/06 07:10:25;;;;;;;17.80;11.23;;;3.10;99.90;;;;;;5019797;28;37208;-76
2021/01/06 07:12:54;;;;;;;15.00;10.23;;;3.10;99.90;;;;;;5022153;28;47235;-77
2021/01/06 07:15:29;;;;;;;17.00;10.40;;;3.10;99.90;;;;;;5042278;28;39896;-76
2021/01/06 07:17:55;;;;;;;15.93;10.63;;;3.10;99.90;;;;;;5025883;28;38849;-77
2021/01/06 07:20:41;;;;;;;17.67;11.00;;;3.10;99.90;;;;;;5025436;28;38310;-76
2021/01/06 07:23:20;;;;;;;15.03;10.57;;;3.10;99.90;;;;;;5025579;28;38415;-77
2021/01/06 07:26:14;;;;;;;14.10;10.20;;;3.00;99.90;;;;;;5008360;28;38901;-76
2021/01/06 07:28:42;;;;;;;19.17;10.90;;;3.00;99.90;;;;;;5001648;28;48546;-76
2021/01/06 07:31:21;;;;;;;16.23;12.27;;;3.00;99.90;;;;;;5022281;28;37283;-77
2021/01/06 07:33:54;;;;;;;13.67;9.87;;;3.00;99.90;;;;;;5024744;28;39255;-77
2021/01/06 07:36:31;;;;;;;;;;;3.00;99.90;;;;;;5029245;28;39137;-77
2021/01/06 07:38:57;;;;;;;14.10;9.97;;;3.00;99.90;;;;;;5024060;28;38446;-77
2021/01/06 07:41:25;;;;;;;13.77;10.33;;;2.90;99.90;;;;;;5017646;28;37501;-77
2021/01/06 07:44:26;;;;;;;14.73;10.73;;;2.90;99.90;;;;;;5025156;28;40144;-77
2021/01/06 07:47:04;;;;;;;16.63;11.67;;;3.00;99.90;;;;;;4990082;28;48781;-77
2021/01/06 07:49:33;;;;;;;17.23;11.57;;;3.00;99.90;;;;;;5014197;28;49116;-77
2021/01/06 07:52:37;;;;;;;16.90;11.33;;;3.00;99.90;;;;;;5005154;28;36627;-78
2021/01/06 07:55:34;;;;;;;14.80;11.55;;;2.90;99.90;;;;;;5020670;28;48376;-77
2021/01/06 07:58:28;;;;;;;18.07;12.97;;;2.90;99.90;;;;;;5019319;28;48860;-77
2021/01/06 08:01:07;;;;;;;19.53;12.30;;;3.00;99.90;;;;;;5021193;28;46645;-77
2021/01/06 08:03:52;;;;;;;18.80;12.33;;;2.90;99.90;;;;;;5025651;28;49567;-78
2021/01/06 08:06:20;;;;;;;17.73;12.43;;;2.90;99.90;;;;;;5019352;28;40601;-76
2021/01/06 08:08:49;;;;;;;17.97;12.27;;;2.90;99.90;;;;;;5015444;28;39422;-79
2021/01/06 08:11:19;;;;;;;18.63;11.43;;;3.00;99.90;;;;;;5037336;28;36521;-79
2021/01/06 08:13:48;;;;;;;16.67;12.27;;;3.00;99.90;;;;;;5041750;28;38183;-79
2021/01/06 08:16:17;;;;;;;15.10;11.33;;;3.00;99.90;;;;;;5013172;28;39752;-78
2021/01/06 08:19:05;;;;;;;16.63;12.03;;;3.00;99.90;;;;;;5022337;28;37502;-78
2021/01/06 08:22:08;;;;;;;16.50;10.67;;;3.00;99.90;;;;;;5041667;28;48535;-78
2021/01/06 08:24:52;;;;;;;17.25;12.32;;;3.00;99.90;;;;;;5038216;28;47195;-78
2021/01/06 08:27:47;;;;;;;17.63;11.53;;;3.00;99.90;;;;;;5022140;28;38271;-78
2021/01/06 08:30:24;;;;;;;18.37;12.20;;;3.00;99.90;;;;;;5009762;28;39450;-77
2021/01/06 08:33:09;;;;;;;16.87;11.37;;;3.00;99.90;;;;;;5038009;28;38123;-78
2021/01/06 08:35:41;;;;;;;19.23;12.70;;;2.90;99.90;;;;;;5038715;28;50643;-78
2021/01/06 08:38:30;;;;;;;18.27;12.53;;;2.90;99.90;;;;;;5022111;28;37420;-76
2021/01/06 08:41:20;;;;;;;16.33;12.17;;;2.80;99.90;;;;;;5025048;28;40063;-78
2021/01/06 08:43:48;;;;;;;18.87;12.67;;;2.90;99.90;;;;;;5020107;28;47133;-77
2021/01/06 08:46:26;;;;;;;17.57;11.90;;;2.90;99.90;;;;;;5028281;28;37295;-78
2021/01/06 08:48:52;;;;;;;17.33;12.83;;;2.90;99.90;;;;;;5024900;28;40354;-77
2021/01/06 08:51:33;;;;;;;15.67;12.47;;;3.00;99.90;;;;;;5007226;28;39126;-77
2021/01/06 08:54:13;;;;;;;17.27;12.03;;;3.00;99.90;;;;;;5020040;28;39632;-76
2021/01/06 08:56:40;;;;;;;14.90;10.50;;;2.90;99.90;;;;;;5044588;28;49119;-77
2021/01/06 08:59:24;;;;;;;14.70;10.67;;;2.80;99.90;;;;;;5020783;28;37811;-76
2021/01/06 09:01:54;;;;;;;16.90;10.70;;;2.70;99.90;;;;;;5026571;28;38347;-77
2021/01/06 09:04:37;;;;;;;14.20;9.50;;;2.70;99.90;;;;;;5011064;28;37506;-77
2021/01/06 09:07:03;;;;;;;15.23;9.90;;;2.70;99.90;;;;;;5041828;28;36759;-77
2021/01/06 09:10:04;;;;;;;17.13;10.00;;;2.70;99.90;;;;;;5030413;28;37931;-79
2021/01/06 09:12:55;;;;;;;15.97;9.30;;;2.80;99.90;;;;;;5034053;28;47241;-80
2021/01/06 09:15:41;;;;;;;12.80;9.47;;;2.70;99.90;;;;;;5036330;28;38434;-79
2021/01/06 09:18:26;;;;;;;12.40;9.30;;;2.80;99.90;;;;;;5034694;28;37514;-78
2021/01/06 09:21:23;;;;;;;13.03;9.87;;;2.80;99.90;;;;;;5030261;28;40438;-79
2021/01/06 09:23:52;;;;;;;16.57;10.73;;;2.90;99.90;;;;;;5035626;28;47362;-78
2021/01/06 09:26:23;;;;;;;16.03;10.13;;;2.90;99.90;;;;;;5024385;28;37249;-77
2021/01/06 09:29:06;;;;;;;13.30;9.70;;;2.90;99.90;;;;;;5039661;28;37148;-77
2021/01/06 09:31:40;;;;;;;12.40;9.63;;;3.00;99.90;;;;;;5034474;28;48140;-77
2021/01/06 09:34:07;;;;;;;15.37;10.33;;;3.00;99.90;;;;;;5033522;28;39598;-77
2021/01/06 09:36:34;;;;;;;15.63;11.07;;;3.10;99.90;;;;;;5021702;28;40277;-77
2021/01/06 09:39:04;;;;;;;15.27;9.50;;;3.10;99.90;;;;;;5038411;28;36697;-77
2021/01/06 09:41:33;;;;;;;11.53;8.53;;;3.10;99.90;;;;;;5009741;28;47170;-77
2021/01/06 09:44:13;;;;;;;12.73;8.37;;;3.10;99.90;;;;;;5040094;28;39131;-77
2021/01/06 09:47:06;;;;;;;12.77;8.93;;;3.10;99.90;;;;;;5022095;28;47309;-77
2021/01/06 09:49:37;;;;;;;11.47;8.37;;;3.10;99.90;;;;;;5025820;28;47194;-77
2021/01/06 09:52:07;;;;;;;11.40;8.63;;;3.30;99.90;;;;;;5041865;28;38255;-77
2021/01/06 09:54:34;;;;;;;14.27;8.63;;;3.30;99.90;;;;;;5039372;28;38792;-77
2021/01/06 09:57:00;;;;;;;12.83;8.50;;;3.40;99.90;;;;;;5034199;28;38026;-77
2021/01/06 09:59:34;;;;;;;15.17;9.10;;;3.40;99.90;;;;;;5024900;28;46895;-78
2021/01/06 10:02:05;;;;;;;13.77;8.13;;;3.40;99.90;;;;;;5044511;28;38879;-77
2021/01/06 10:04:40;;;;;;;12.97;8.90;;;3.50;99.90;;;;;;5027228;28;47086;-77
2021/01/06 10:07:21;;;;;;;13.80;9.07;;;3.50;99.90;;;;;;5041088;28;38725;-77
2021/01/06 10:10:13;;;;;;;11.13;8.27;;;3.60;99.90;;;;;;5042774;28;37174;-77
2021/01/06 10:12:45;;;;;;;13.67;8.00;;;3.50;99.90;;;;;;5050761;28;47013;-77
2021/01/06 10:15:23;;;;;;;12.00;8.10;;;3.50;99.90;;;;;;5020023;28;38930;-78
2021/01/06 10:18:16;;;;;;;9.63;8.13;;;3.50;99.90;;;;;;5027145;28;39017;-78
2021/01/06 10:21:01;;;;;;;12.77;8.77;;;3.60;99.90;;;;;;5046024;28;48576;-77
2021/01/06 10:23:45;;;;;;;14.47;8.10;;;3.70;99.90;;;;;;5040081;28;47121;-78
2021/01/06 10:26:44;;;;;;;16.60;8.13;;;3.80;99.90;;;;;;5035870;28;38297;-78
2021/01/06 10:29:28;;;;;;;10.60;8.17;;;3.80;99.90;;;;;;5007315;28;38801;-78
2021/01/06 10:32:21;;;;;;;13.17;9.13;;;3.90;99.90;;;;;;5043662;28;36970;-77
2021/01/06 10:34:49;;;;;;;10.35;5.65;;;3.90;99.90;;;;;;5024332;28;47235;-78
2021/01/06 10:37:20;;;;;;;11.60;8.23;;;4.10;99.90;;;;;;5040049;28;39273;-78
2021/01/06 10:39:53;;;;;;;9.73;7.10;;;4.20;99.90;;;;;;5039878;28;38789;-78
2021/01/06 10:42:22;;;;;;;10.97;7.77;;;4.20;99.90;;;;;;5044863;28;37296;-77
2021/01/06 10:44:50;;;;;;;12.03;7.87;;;4.20;99.90;;;;;;5044159;28;39226;-79
2021/01/06 10:47:31;;;;;;;10.63;7.23;;;4.20;99.90;;;;;;5043508;28;38504;-78
2021/01/06 10:50:29;;;;;;;13.80;8.50;;;4.20;99.90;;;;;;5045415;28;38057;-78
2021/01/06 10:53:08;;;;;;;12.73;8.27;;;4.10;99.90;;;;;;5042208;28;47903;-78
2021/01/06 10:56:01;;;;;;;12.70;8.93;;;4.20;99.90;;;;;;5037128;28;47340;-78
2021/01/06 10:58:37;;;;;;;14.30;10.00;;;4.20;99.90;;;;;;5008287;28;47027;-78
2021/01/06 11:01:36;;;;;;;14.20;9.10;;;4.20;99.90;;;;;;5037167;28;37554;-78
2021/01/06 11:04:45;;;;;;;14.93;9.73;;;4.20;99.90;;;;;;5022986;28;37529;-77
2021/01/06 11:07:58;;;;;;;13.20;9.40;;;4.20;99.90;;;;;;5038631;28;37570;-77
2021/01/06 11:10:24;;;;;;;;;;;4.30;99.90;;;;;;5040938;28;38918;-78
2021/01/06 11:13:19;;;;;;;13.30;8.47;;;4.40;99.90;;;;;;5019850;28;38280;-77
2021/01/06 11:16:00;;;;;;;16.80;9.33;;;4.50;99.90;;;;;;5034815;28;47161;-78
2021/01/06 11:18:26;;;;;;;13.20;9.37;;;4.60;99.90;;;;;;5045470;28;37947;-79
2021/01/06 11:21:13;;;;;;;15.43;8.57;;;4.60;99.90;;;;;;5028303;28;38822;-77
2021/01/06 11:23:49;;;;;;;13.30;9.37;;;4.60;99.90;;;;;;5048098;28;48584;-77
2021/01/06 11:26:30;;;;;;;13.60;9.03;;;4.70;99.90;;;;;;5026518;28;38145;-78
2021/01/06 11:29:05;;;;;;;11.47;7.93;;;4.70;99.90;;;;;;5046714;28;39466;-78
2021/01/06 11:31:36;;;;;;;11.17;8.27;;;4.60;99.90;;;;;;5045444;28;46949;-76
2021/01/06 11:34:11;;;;;;;11.87;7.60;;;4.70;99.90;;;;;;5036059;28;38140;-77
2021/01/06 11:36:56;;;;;;;10.53;7.90;;;4.70;99.90;;;;;;5041303;28;37872;-78
2021/01/06 11:39:37;;;;;;;12.97;7.67;;;4.80;99.90;;;;;;5023993;28;37995;-78
2021/01/06 11:42:06;;;;;;;16.07;7.97;;;4.70;99.90;;;;;;5025327;28;38761;-77
2021/01/06 11:44:37;;;;;;;14.23;8.70;;;4.80;99.90;;;;;;5046519;28;39012;-78
2021/01/06 11:47:22;;;;;;;18.53;8.77;;;4.90;99.90;;;;;;5046438;28;37301;-77
2021/01/06 11:50:29;;;;;;;11.83;8.33;;;4.90;99.90;;;;;;5022245;28;39855;-78
2021/01/06 11:53:23;;;;;;;12.40;7.83;;;4.80;99.90;;;;;;5043116;28;48973;-77
2021/01/06 11:56:11;;;;;;;14.67;8.20;;;4.90;99.90;;;;;;5030377;28;47430;-78
2021/01/06 11:59:10;;;;;;;11.53;8.00;;;4.90;99.90;;;;;;5032528;28;49767;-76
2021/01/06 12:01:53;;;;;;;11.70;8.20;;;5.00;99.90;;;;;;5014945;28;48663;-78
2021/01/06 12:04:38;;;;;;;10.88;7.35;;;4.90;99.90;;;;;;5040031;28;38654;-78
2021/01/06 12:07:14;;;;;;;13.13;7.97;;;5.00;99.90;;;;;;5041083;28;38256;-77
2021/01/06 12:09:59;;;;;;;12.27;8.53;;;5.10;99.90;;;;;;5040318;28;37028;-77
2021/01/06 12:12:49;;;;;;;10.63;8.43;;;5.10;99.90;;;;;;5043617;28;38778;-77
2021/01/06 12:15:37;;;;;;;10.70;7.87;;;5.10;99.90;;;;;;5013124;28;39031;-78
2021/01/06 12:18:13;;;;;;;11.37;7.87;;;5.00;99.90;;;;;;5027072;28;39219;-77
2021/01/06 12:20:45;;;;;;;12.13;7.77;;;5.00;99.90;;;;;;5016895;28;37654;-78
2021/01/06 12:23:15;;;;;;;14.35;8.60;;;5.00;99.90;;;;;;5040911;28;38674;-78
2021/01/06 12:25:46;;;;;;;12.63;7.83;;;5.00;99.90;;;;;;5026308;28;38728;-78
2021/01/06 12:28:46;;;;;;;10.70;7.27;;;5.00;99.90;;;;;;5027185;28;38324;-77
2021/01/06 12:31:38;;;;;;;11.43;7.73;;;5.00;99.90;;;;;;5025715;28;38749;-76
2021/01/06 12:34:35;;;;;;;10.40;7.67;;;5.00;99.90;;;;;;5025516;28;40885;-77
2021/01/06 12:37:10;;;;;;;10.67;8.17;;;4.90;99.90;;;;;;5028048;28;38831;-77
2021/01/06 12:39:42;;;;;;;12.97;9.17;;;4.90;99.90;;;;;;5041578;28;49007;-79
2021/01/06 12:42:14;;;;;;;11.40;8.63;;;4.80;99.90;;;;;;5035398;28;37100;-77
2021/01/06 12:44:45;;;;;;;11.40;7.95;;;4.70;99.90;;;;;;5032969;28;39292;-78
2021/01/06 12:47:19;;;;;;;10.97;8.87;;;4.70;99.90;;;;;;5040765;28;38302;-77
2021/01/06 12:49:56;;;;;;;10.07;7.87;;;4.80;99.90;;;;;;5024007;28;38606;-78
2021/01/06 12:52:36;;;;;;;10.57;7.83;;;5.00;99.90;;;;;;5037211;28;37986;-77
2021/01/06 12:55:17;;;;;;;9.70;7.17;;;5.10;99.90;;;;;;5024633;28;39679;-78
2021/01/06 12:57:46;;;;;;;11.40;7.23;;;5.20;99.90;;;;;;5045274;28;48609;-78
2021/01/06 13:00:24;;;;;;;10.57;7.23;;;5.30;99.90;;;;;;5030500;28;39643;-77
2021/01/06 13:02:59;;;;;;;9.93;6.37;;;5.30;99.90;;;;;;5047948;28;36979;-77
2021/01/06 13:05:29;;;;;;;9.73;6.27;;;5.30;99.90;;;;;;5026022;28;37875;-77
2021/01/06 13:07:58;;;;;;;8.73;6.07;;;5.40;99.90;;;;;;5028452;28;38764;-78
2021/01/06 13:10:39;;;;;;;8.83;5.57;;;5.50;99.90;;;;;;5024159;28;37170;-77
2021/01/06 13:13:30;;;;;;;8.30;4.93;;;5.50;99.90;;;;;;5024648;28;39103;-78
2021/01/06 13:16:03;;;;;;;8.27;5.00;;;5.50;99.90;;;;;;5007699;28;39936;-77
2021/01/06 13:18:47;;;;;;;8.90;4.87;;;5.40;99.90;;;;;;5014754;28;48665;-77
2021/01/06 13:21:19;;;;;;;7.13;5.00;;;5.30;99.90;;;;;;5003867;28;39074;-78
2021/01/06 13:23:54;;;;;;;13.10;4.77;;;5.30;99.90;;;;;;5024542;28;37660;-78
2021/01/06 13:26:29;;;;;;;8.43;4.87;;;5.40;99.90;;;;;;5025873;28;38485;-77
2021/01/06 13:29:20;;;;;;;8.10;4.40;;;5.40;99.90;;;;;;5002846;28;39072;-77
2021/01/06 13:31:49;;;;;;;7.43;4.73;;;5.30;99.90;;;;;;5035446;28;47373;-77
2021/01/06 13:34:21;;;;;;;6.27;4.33;;;5.10;99.90;;;;;;5038596;28;37143;-77